createdAt,value
2022-07-26T00:01:40.398Z,33.40
2022-07-26T00:06:43.783Z,33.30
2022-07-26T00:11:47.351Z,33.30
2022-07-26T00:16:52.348Z,33.20
2022-07-26T00:22:09.589Z,33.10
2022-07-26T00:27:12.950Z,33.20
2022-07-26T00:32:17.808Z,33.10
2022-07-26T00:37:21.311Z,33.00
2022-07-26T00:42:24.730Z,33.00
2022-07-26T00:47:29.515Z,33.00
2022-07-26T00:52:32.929Z,33.00
2022-07-26T00:57:37.049Z,33.00
2022-07-26T01:02:42.099Z,33.00
2022-07-26T01:07:46.186Z,32.90
2022-07-26T01:12:49.545Z,32.80
2022-07-26T01:17:54.637Z,32.80
2022-07-26T01:22:59.365Z,32.70
2022-07-26T01:28:02.923Z,32.60
2022-07-26T01:33:06.501Z,32.60
2022-07-26T01:38:12.059Z,32.60
2022-07-26T01:43:15.487Z,32.50
2022-07-26T01:48:18.911Z,32.40
2022-07-26T01:53:23.972Z,32.30
2022-07-26T01:58:27.338Z,32.10
2022-07-26T02:03:31.001Z,31.90
2022-07-26T02:08:35.702Z,31.70
2022-07-26T02:13:41.117Z,31.60
2022-07-26T02:18:44.894Z,31.50
2022-07-26T02:23:49.622Z,31.30
2022-07-26T02:28:52.917Z,31.20
2022-07-26T02:33:56.298Z,31.10
2022-07-26T02:39:01.305Z,30.90
2022-07-26T02:44:05.560Z,30.90
2022-07-26T02:49:09.246Z,30.80
2022-07-26T02:54:14.579Z,30.80
2022-07-26T02:59:17.970Z,30.80
2022-07-26T03:04:21.500Z,30.90
2022-07-26T03:09:26.219Z,30.90
2022-07-26T03:14:29.585Z,30.90
2022-07-26T03:19:32.910Z,30.90
2022-07-26T03:24:37.976Z,30.80
2022-07-26T03:29:41.296Z,30.70
2022-07-26T03:34:44.598Z,30.60
2022-07-26T03:39:49.694Z,30.60
2022-07-26T03:44:53.072Z,30.60
2022-07-26T03:49:56.393Z,30.60
2022-07-26T03:55:01.447Z,30.60
2022-07-26T04:00:05.745Z,30.50
2022-07-26T04:05:11.285Z,30.40
2022-07-26T04:10:18.360Z,30.40
2022-07-26T04:15:22.132Z,30.40
2022-07-26T04:20:25.459Z,30.40
2022-07-26T04:25:38.642Z,30.40
2022-07-26T04:30:45.357Z,30.50
2022-07-26T04:35:48.900Z,30.50
2022-07-26T04:40:53.695Z,30.50
2022-07-26T04:45:57.682Z,30.60
2022-07-26T04:51:01.812Z,30.60
2022-07-26T04:56:07.175Z,30.60
2022-07-26T05:01:11.299Z,30.70
2022-07-26T05:06:14.908Z,30.70
2022-07-26T05:11:19.672Z,30.80
2022-07-26T05:16:23.048Z,30.80
2022-07-26T05:21:28.096Z,30.90
2022-07-26T05:26:32.984Z,31.00
2022-07-26T05:31:36.411Z,31.10
2022-07-26T05:36:39.980Z,31.10
2022-07-26T05:41:44.797Z,31.20
2022-07-26T05:46:48.153Z,31.20
2022-07-26T05:51:51.507Z,31.30
2022-07-26T05:56:56.250Z,31.40
2022-07-26T06:02:00.007Z,31.50
2022-07-26T06:07:03.776Z,31.60
2022-07-26T06:12:09.072Z,31.60
2022-07-26T06:17:12.596Z,31.60
2022-07-26T06:22:16.064Z,31.50
2022-07-26T06:27:21.179Z,31.50
2022-07-26T06:32:24.561Z,31.50
2022-07-26T06:37:28.086Z,31.40
2022-07-26T06:42:33.304Z,31.30
2022-07-26T06:47:36.601Z,31.30
2022-07-26T06:52:39.991Z,31.30
2022-07-26T06:57:49.744Z,31.30
2022-07-26T07:02:53.845Z,31.30
2022-07-26T07:07:57.677Z,31.30
2022-07-26T07:13:03.151Z,31.30
2022-07-26T07:18:06.510Z,31.30
2022-07-26T07:23:09.873Z,31.30
2022-07-26T07:28:14.801Z,31.30
2022-07-26T07:33:22.573Z,31.30
2022-07-26T07:38:26.622Z,31.30
2022-07-26T07:43:33.184Z,31.30
2022-07-26T07:48:36.530Z,31.30
2022-07-26T07:53:39.933Z,31.20
2022-07-26T07:58:44.742Z,31.10
2022-07-26T08:03:50.583Z,31.10
2022-07-26T08:08:54.242Z,31.00
2022-07-26T08:13:58.916Z,31.00
2022-07-26T08:19:02.291Z,30.90
2022-07-26T08:24:06.291Z,30.90
2022-07-26T08:29:11.787Z,31.00
2022-07-26T08:34:15.385Z,31.00
2022-07-26T08:39:18.805Z,31.10
2022-07-26T08:44:23.543Z,31.20
2022-07-26T08:49:26.985Z,31.30
2022-07-26T08:54:30.479Z,31.30
2022-07-26T08:59:35.271Z,31.40
2022-07-26T09:04:44.235Z,31.50
2022-07-26T09:10:07.095Z,31.60
2022-07-26T09:15:22.608Z,31.60
2022-07-26T09:20:27.832Z,31.60
2022-07-26T09:25:33.516Z,31.60
2022-07-26T09:30:38.377Z,31.70
2022-07-26T09:35:50.393Z,31.60
2022-07-26T09:40:55.658Z,31.70
2022-07-26T09:46:07.836Z,31.70
2022-07-26T09:51:12.028Z,31.80
2022-07-26T09:56:16.222Z,31.70
2022-07-26T10:01:20.947Z,31.80
2022-07-26T10:06:30.077Z,31.80
2022-07-26T10:11:40.000Z,31.80
2022-07-26T10:16:44.752Z,31.90
2022-07-26T10:21:48.180Z,31.90
2022-07-26T10:26:51.556Z,31.90
2022-07-26T10:32:21.417Z,31.90
2022-07-26T10:37:29.750Z,31.80
2022-07-26T10:42:45.468Z,31.80
2022-07-26T10:48:14.853Z,31.80
2022-07-26T10:53:23.933Z,31.80
2022-07-26T10:58:28.319Z,31.90
2022-07-26T11:03:41.255Z,32.00
2022-07-26T11:08:48.178Z,32.00
2022-07-26T11:13:51.813Z,32.00
2022-07-26T11:18:56.482Z,32.10
2022-07-26T11:24:04.236Z,32.20
2022-07-26T11:29:07.633Z,32.30
2022-07-26T11:34:19.367Z,32.40
2022-07-26T11:39:24.032Z,32.50
2022-07-26T11:44:28.218Z,32.50
2022-07-26T11:49:51.632Z,32.60
2022-07-26T11:54:57.531Z,32.70
2022-07-26T12:00:01.743Z,32.80
2022-07-26T12:05:19.591Z,33.00
2022-07-26T12:10:24.289Z,33.10
2022-07-26T12:15:28.308Z,33.30
2022-07-26T12:20:33.461Z,33.30
2022-07-26T12:25:37.824Z,33.50
2022-07-26T12:30:48.537Z,33.60
2022-07-26T12:35:55.231Z,33.70
2022-07-26T12:40:58.561Z,33.90
2022-07-26T12:46:01.916Z,33.90
2022-07-26T12:51:06.835Z,33.90
2022-07-26T12:56:10.134Z,33.90
2022-07-26T13:01:13.550Z,33.80
2022-07-26T13:06:18.640Z,33.50
2022-07-26T13:11:21.947Z,33.20
2022-07-26T13:16:25.301Z,32.90
2022-07-26T13:21:33.440Z,32.70
2022-07-26T13:26:37.265Z,32.40
2022-07-26T13:31:40.779Z,32.30
2022-07-26T13:36:45.975Z,32.10
2022-07-26T13:41:49.680Z,32.00
2022-07-26T13:46:54.765Z,31.90
2022-07-26T13:51:59.608Z,31.80
2022-07-26T13:57:05.300Z,31.70
2022-07-26T14:02:09.089Z,31.60
2022-07-26T14:07:14.206Z,31.60
2022-07-26T14:12:17.632Z,31.60
2022-07-26T14:17:20.965Z,31.60
2022-07-26T14:22:25.731Z,31.60
2022-07-26T14:27:29.135Z,31.60
2022-07-26T14:32:32.489Z,31.60
2022-07-26T14:37:44.157Z,31.60
2022-07-26T14:42:48.747Z,31.60
2022-07-26T14:47:52.115Z,31.60
2022-07-26T14:52:57.287Z,31.60
2022-07-26T14:58:01.042Z,31.60
2022-07-26T15:03:04.370Z,31.60
2022-07-26T15:08:09.180Z,31.70
2022-07-26T15:13:14.987Z,31.70
2022-07-26T15:18:18.319Z,31.70
2022-07-26T15:23:23.061Z,31.70
2022-07-26T15:28:26.398Z,31.80
2022-07-26T15:33:29.758Z,31.80
2022-07-26T15:38:34.505Z,31.80
2022-07-26T15:43:48.263Z,31.80
2022-07-26T15:48:52.543Z,31.80
2022-07-26T15:53:57.301Z,31.80
2022-07-26T15:59:00.612Z,31.80
2022-07-26T16:04:05.246Z,31.80
2022-07-26T16:09:17.211Z,31.80
2022-07-26T16:14:21.821Z,31.80
2022-07-26T16:19:26.417Z,31.80
2022-07-26T16:24:31.433Z,31.80
2022-07-26T16:29:34.699Z,31.80
2022-07-26T16:34:38.498Z,31.80
2022-07-26T16:39:43.177Z,31.70
2022-07-26T16:44:46.487Z,31.70
2022-07-26T16:49:50.157Z,31.70
2022-07-26T16:54:54.963Z,31.70
2022-07-26T16:59:58.317Z,31.60
2022-07-26T17:05:01.869Z,31.60
2022-07-26T17:10:09.041Z,31.50
2022-07-26T17:15:12.730Z,31.50
2022-07-26T17:20:16.507Z,31.50
2022-07-26T17:25:21.455Z,31.50
2022-07-26T17:30:24.829Z,31.40
2022-07-26T17:35:28.140Z,31.40
2022-07-26T17:40:33.834Z,31.40
2022-07-26T17:45:37.296Z,31.30
2022-07-26T17:50:40.760Z,31.30
2022-07-26T17:55:45.524Z,31.30
2022-07-26T18:00:49.098Z,31.30
2022-07-26T18:05:52.545Z,31.30
2022-07-26T18:10:58.298Z,31.30
2022-07-26T18:16:05.801Z,31.40
2022-07-26T18:21:09.757Z,31.40
2022-07-26T18:26:14.444Z,31.30
2022-07-26T18:31:17.841Z,31.30
2022-07-26T18:36:21.305Z,31.40
2022-07-26T18:41:26.094Z,31.30
2022-07-26T18:46:29.505Z,31.30
2022-07-26T18:51:33.890Z,31.30
2022-07-26T18:56:38.906Z,31.20
2022-07-26T19:01:42.836Z,31.10
2022-07-26T19:06:46.254Z,31.10
2022-07-26T19:11:54.026Z,31.10
2022-07-26T19:16:57.565Z,31.10
2022-07-26T19:22:00.997Z,31.20
2022-07-26T19:27:19.048Z,31.20
2022-07-26T19:32:22.416Z,31.20
2022-07-26T19:37:25.848Z,31.20
2022-07-26T19:42:32.501Z,31.20
2022-07-26T19:47:35.988Z,31.20
2022-07-26T19:52:39.835Z,31.20
2022-07-26T19:57:44.599Z,31.20
2022-07-26T20:02:47.999Z,31.20
2022-07-26T20:07:51.504Z,31.20
2022-07-26T20:12:56.310Z,30.90
2022-07-26T20:17:59.692Z,31.00
2022-07-26T20:23:04.865Z,31.00
2022-07-26T20:28:09.770Z,31.10
2022-07-26T20:33:13.167Z,31.10
2022-07-26T20:38:18.347Z,31.10
2022-07-26T20:43:23.199Z,31.10
2022-07-26T20:48:28.917Z,31.10
2022-07-26T20:53:32.260Z,31.10
2022-07-26T20:58:37.034Z,31.10
2022-07-26T21:03:41.965Z,31.10
2022-07-26T21:08:45.264Z,31.10
2022-07-26T21:13:49.942Z,31.10
2022-07-26T21:18:56.735Z,31.10
2022-07-26T21:24:00.135Z,31.10
2022-07-26T21:29:05.036Z,31.10
2022-07-26T21:34:08.586Z,31.10
2022-07-26T21:39:13.136Z,31.10
2022-07-26T21:44:18.412Z,31.10
2022-07-26T21:49:21.858Z,31.10
2022-07-26T21:54:25.436Z,31.10
2022-07-26T21:59:30.088Z,31.00
2022-07-26T22:04:33.697Z,31.00
2022-07-26T22:09:36.979Z,31.00
2022-07-26T22:14:41.687Z,31.00
2022-07-26T22:19:44.993Z,30.90
2022-07-26T22:24:48.405Z,30.90
2022-07-26T22:29:53.386Z,30.90
2022-07-26T22:34:57.091Z,30.90
2022-07-26T22:40:00.420Z,30.90
2022-07-26T22:45:09.940Z,30.90
2022-07-26T22:50:13.794Z,30.90
2022-07-26T22:55:17.569Z,30.80
2022-07-26T23:00:23.110Z,30.80
2022-07-26T23:05:45.075Z,30.80
2022-07-26T23:10:49.985Z,30.70
2022-07-26T23:16:00.479Z,30.80
2022-07-26T23:21:05.159Z,30.70
2022-07-26T23:26:08.894Z,30.80
2022-07-26T23:31:14.526Z,30.80
2022-07-26T23:36:17.996Z,30.80
2022-07-26T23:41:21.469Z,30.80
2022-07-26T23:46:27.262Z,30.80
2022-07-26T23:51:30.940Z,30.80
2022-07-26T23:56:34.263Z,30.80
